sensor_id;sensor_type;location;lat;lon;timestamp;temperature;humidity
5899;DHT22;2975;50.956;6.962;2024-01-30T00:01:22;8.10;99.90
5899;DHT22;2975;50.956;6.962;2024-01-30T00:03:48;8.20;99.90
5899;DHT22;2975;50.956;6.962;2024-01-30T00:06:13;8.20;99.90
5899;DHT22;2975;50.956;6.962;2024-01-30T00:08:39;8.20;99.90
5899;DHT22;2975;50.956;6.962;2024-01-30T00:11:04;8.20;99.90
5899;DHT22;2975;50.956;6.962;2024-01-30T00:13:30;8.30;99.90
5899;DHT22;2975;50.956;6.962;2024-01-30T00:15:56;8.20;99.90
5899;DHT22;2975;50.956;6.962;2024-01-30T00:18:21;8.30;99.90
5899;DHT22;2975;50.956;6.962;2024-01-30T00:20:47;8.20;99.90
5899;DHT22;2975;50.956;6.962;2024-01-30T00:23:13;8.20;99.90
5899;DHT22;2975;50.956;6.962;2024-01-30T00:25:38;8.20;99.90
5899;DHT22;2975;50.956;6.962;2024-01-30T00:28:04;8.20;99.90
5899;DHT22;2975;50.956;6.962;2024-01-30T00:30:30;8.20;99.90
5899;DHT22;2975;50.956;6.962;2024-01-30T00:32:55;8.20;99.90
5899;DHT22;2975;50.956;6.962;2024-01-30T00:35:21;8.20;99.90
5899;DHT22;2975;50.956;6.962;2024-01-30T00:37:48;8.20;99.90
5899;DHT22;2975;50.956;6.962;2024-01-30T00:40:13;8.20;99.90
5899;DHT22;2975;50.956;6.962;2024-01-30T00:42:42;8.20;99.90
5899;DHT22;2975;50.956;6.962;2024-01-30T00:45:14;8.20;99.90
5899;DHT22;2975;50.956;6.962;2024-01-30T00:47:40;8.20;99.90
5899;DHT22;2975;50.956;6.962;2024-01-30T00:50:06;8.20;99.90
5899;DHT22;2975;50.956;6.962;2024-01-30T00:52:32;8.20;99.90
5899;DHT22;2975;50.956;6.962;2024-01-30T00:54:58;8.20;99.90
5899;DHT22;2975;50.956;6.962;2024-01-30T00:57:24;8.20;99.90
5899;DHT22;2975;50.956;6.962;2024-01-30T00:59:50;8.10;99.90
5899;DHT22;2975;50.956;6.962;2024-01-30T01:02:15;8.10;99.90
5899;DHT22;2975;50.956;6.962;2024-01-30T01:04:42;8.10;99.90
5899;DHT22;2975;50.956;6.962;2024-01-30T01:07:08;8.00;99.90
5899;DHT22;2975;50.956;6.962;2024-01-30T01:09:34;8.00;99.90
5899;DHT22;2975;50.956;6.962;2024-01-30T01:11:59;7.90;99.90
5899;DHT22;2975;50.956;6.962;2024-01-30T01:14:25;8.00;99.90
5899;DHT22;2975;50.956;6.962;2024-01-30T01:16:50;8.00;99.90
5899;DHT22;2975;50.956;6.962;2024-01-30T01:19:16;8.00;99.90
5899;DHT22;2975;50.956;6.962;2024-01-30T01:21:42;8.00;99.90
5899;DHT22;2975;50.956;6.962;2024-01-30T01:24:07;8.10;99.90
5899;DHT22;2975;50.956;6.962;2024-01-30T01:26:33;8.10;99.90
5899;DHT22;2975;50.956;6.962;2024-01-30T01:28:59;8.10;99.90
5899;DHT22;2975;50.956;6.962;2024-01-30T01:31:24;8.10;99.90
5899;DHT22;2975;50.956;6.962;2024-01-30T01:33:50;8.00;99.90
5899;DHT22;2975;50.956;6.962;2024-01-30T01:36:16;8.00;99.90
5899;DHT22;2975;50.956;6.962;2024-01-30T01:38:41;8.10;99.90
5899;DHT22;2975;50.956;6.962;2024-01-30T01:41:07;8.10;99.90
5899;DHT22;2975;50.956;6.962;2024-01-30T01:43:32;8.10;99.90
5899;DHT22;2975;50.956;6.962;2024-01-30T01:45:58;8.00;99.90
5899;DHT22;2975;50.956;6.962;2024-01-30T01:48:24;8.10;99.90
5899;DHT22;2975;50.956;6.962;2024-01-30T01:50:51;8.20;99.90
5899;DHT22;2975;50.956;6.962;2024-01-30T01:53:17;8.30;99.90
5899;DHT22;2975;50.956;6.962;2024-01-30T01:55:43;8.40;99.90
5899;DHT22;2975;50.956;6.962;2024-01-30T01:58:09;8.40;99.90
5899;DHT22;2975;50.956;6.962;2024-01-30T02:00:36;8.50;99.90
5899;DHT22;2975;50.956;6.962;2024-01-30T02:03:06;8.40;99.90
5899;DHT22;2975;50.956;6.962;2024-01-30T02:05:32;8.50;99.90
5899;DHT22;2975;50.956;6.962;2024-01-30T02:07:57;8.50;99.90
5899;DHT22;2975;50.956;6.962;2024-01-30T02:10:23;8.50;99.90
5899;DHT22;2975;50.956;6.962;2024-01-30T02:12:49;8.60;99.90
5899;DHT22;2975;50.956;6.962;2024-01-30T02:15:15;8.60;99.90
5899;DHT22;2975;50.956;6.962;2024-01-30T02:17:41;8.60;99.90
5899;DHT22;2975;50.956;6.962;2024-01-30T02:20:07;8.60;99.90
5899;DHT22;2975;50.956;6.962;2024-01-30T02:22:34;8.60;99.90
5899;DHT22;2975;50.956;6.962;2024-01-30T02:25:00;8.60;99.90
5899;DHT22;2975;50.956;6.962;2024-01-30T02:27:26;8.60;99.90
5899;DHT22;2975;50.956;6.962;2024-01-30T02:29:51;8.50;99.90
5899;DHT22;2975;50.956;6.962;2024-01-30T02:32:17;8.50;99.90
5899;DHT22;2975;50.956;6.962;2024-01-30T02:34:43;8.50;99.90
5899;DHT22;2975;50.956;6.962;2024-01-30T02:37:08;8.50;99.90
5899;DHT22;2975;50.956;6.962;2024-01-30T02:39:34;8.60;99.90
5899;DHT22;2975;50.956;6.962;2024-01-30T02:41:59;8.60;99.90
5899;DHT22;2975;50.956;6.962;2024-01-30T02:44:25;8.60;99.90
5899;DHT22;2975;50.956;6.962;2024-01-30T02:46:50;8.60;99.90
5899;DHT22;2975;50.956;6.962;2024-01-30T02:49:16;8.60;99.90
5899;DHT22;2975;50.956;6.962;2024-01-30T02:51:42;8.70;99.90
5899;DHT22;2975;50.956;6.962;2024-01-30T02:54:07;8.70;99.90
5899;DHT22;2975;50.956;6.962;2024-01-30T02:56:33;8.70;99.90
5899;DHT22;2975;50.956;6.962;2024-01-30T02:58:58;8.70;99.90
5899;DHT22;2975;50.956;6.962;2024-01-30T03:01:24;8.70;99.90
5899;DHT22;2975;50.956;6.962;2024-01-30T03:03:50;8.70;99.90
5899;DHT22;2975;50.956;6.962;2024-01-30T03:06:15;8.70;99.90
5899;DHT22;2975;50.956;6.962;2024-01-30T03:08:43;8.70;99.90
5899;DHT22;2975;50.956;6.962;2024-01-30T03:11:08;8.80;99.90
5899;DHT22;2975;50.956;6.962;2024-01-30T03:13:34;8.70;99.90
5899;DHT22;2975;50.956;6.962;2024-01-30T03:15:59;8.70;99.90
5899;DHT22;2975;50.956;6.962;2024-01-30T03:18:25;8.70;99.90
5899;DHT22;2975;50.956;6.962;2024-01-30T03:20:50;8.70;99.90
5899;DHT22;2975;50.956;6.962;2024-01-30T03:23:16;8.70;99.90
5899;DHT22;2975;50.956;6.962;2024-01-30T03:25:42;8.70;99.90
5899;DHT22;2975;50.956;6.962;2024-01-30T03:28:07;8.70;99.90
5899;DHT22;2975;50.956;6.962;2024-01-30T03:30:34;8.80;99.90
5899;DHT22;2975;50.956;6.962;2024-01-30T03:33:00;8.80;99.90
5899;DHT22;2975;50.956;6.962;2024-01-30T03:35:26;8.60;99.90
5899;DHT22;2975;50.956;6.962;2024-01-30T03:37:51;8.70;99.90
5899;DHT22;2975;50.956;6.962;2024-01-30T03:40:17;8.80;99.90
5899;DHT22;2975;50.956;6.962;2024-01-30T03:42:42;8.80;99.90
5899;DHT22;2975;50.956;6.962;2024-01-30T03:45:08;8.80;99.90
5899;DHT22;2975;50.956;6.962;2024-01-30T03:47:34;8.70;99.90
5899;DHT22;2975;50.956;6.962;2024-01-30T03:49:59;8.60;99.90
5899;DHT22;2975;50.956;6.962;2024-01-30T03:52:25;8.70;99.90
5899;DHT22;2975;50.956;6.962;2024-01-30T03:54:50;8.80;99.90
5899;DHT22;2975;50.956;6.962;2024-01-30T03:57:16;8.70;99.90
5899;DHT22;2975;50.956;6.962;2024-01-30T03:59:42;8.70;99.90
5899;DHT22;2975;50.956;6.962;2024-01-30T04:02:09;8.80;99.90
5899;DHT22;2975;50.956;6.962;2024-01-30T04:04:35;8.80;99.90
5899;DHT22;2975;50.956;6.962;2024-01-30T04:07:00;8.80;99.90
5899;DHT22;2975;50.956;6.962;2024-01-30T04:09:26;8.80;99.90
5899;DHT22;2975;50.956;6.962;2024-01-30T04:11:54;8.70;99.90
5899;DHT22;2975;50.956;6.962;2024-01-30T04:14:19;8.70;99.90
5899;DHT22;2975;50.956;6.962;2024-01-30T04:16:45;8.60;99.90
5899;DHT22;2975;50.956;6.962;2024-01-30T04:19:10;8.60;99.90
5899;DHT22;2975;50.956;6.962;2024-01-30T04:21:36;8.50;99.90
5899;DHT22;2975;50.956;6.962;2024-01-30T04:24:01;8.50;99.90
5899;DHT22;2975;50.956;6.962;2024-01-30T04:26:27;8.40;99.90
5899;DHT22;2975;50.956;6.962;2024-01-30T04:28:53;8.50;99.90
5899;DHT22;2975;50.956;6.962;2024-01-30T04:31:18;8.50;99.90
5899;DHT22;2975;50.956;6.962;2024-01-30T04:33:44;8.50;99.90
5899;DHT22;2975;50.956;6.962;2024-01-30T04:36:09;8.50;99.90
5899;DHT22;2975;50.956;6.962;2024-01-30T04:38:35;8.50;99.90
5899;DHT22;2975;50.956;6.962;2024-01-30T04:41:01;8.50;99.90
5899;DHT22;2975;50.956;6.962;2024-01-30T04:43:27;8.40;99.90
5899;DHT22;2975;50.956;6.962;2024-01-30T04:45:52;8.40;99.90
5899;DHT22;2975;50.956;6.962;2024-01-30T04:48:18;8.40;99.90
5899;DHT22;2975;50.956;6.962;2024-01-30T04:50:44;8.40;99.90
5899;DHT22;2975;50.956;6.962;2024-01-30T04:53:09;8.30;99.90
5899;DHT22;2975;50.956;6.962;2024-01-30T04:55:35;8.20;99.90
5899;DHT22;2975;50.956;6.962;2024-01-30T04:58:01;8.20;99.90
5899;DHT22;2975;50.956;6.962;2024-01-30T05:00:27;8.20;99.90
5899;DHT22;2975;50.956;6.962;2024-01-30T05:02:55;8.20;99.90
5899;DHT22;2975;50.956;6.962;2024-01-30T05:05:21;8.20;99.90
5899;DHT22;2975;50.956;6.962;2024-01-30T05:07:47;8.20;99.90
5899;DHT22;2975;50.956;6.962;2024-01-30T05:10:13;8.30;99.90
5899;DHT22;2975;50.956;6.962;2024-01-30T05:12:39;8.30;99.90
5899;DHT22;2975;50.956;6.962;2024-01-30T05:15:05;8.20;99.90
5899;DHT22;2975;50.956;6.962;2024-01-30T05:17:31;8.10;99.90
5899;DHT22;2975;50.956;6.962;2024-01-30T05:19:57;8.10;99.90
5899;DHT22;2975;50.956;6.962;2024-01-30T05:22:22;8.10;99.90
5899;DHT22;2975;50.956;6.962;2024-01-30T05:24:48;8.20;99.90
5899;DHT22;2975;50.956;6.962;2024-01-30T05:27:13;8.10;99.90
5899;DHT22;2975;50.956;6.962;2024-01-30T05:29:40;8.10;99.90
5899;DHT22;2975;50.956;6.962;2024-01-30T05:32:06;8.20;99.90
5899;DHT22;2975;50.956;6.962;2024-01-30T05:34:32;8.10;99.90
5899;DHT22;2975;50.956;6.962;2024-01-30T05:36:57;8.10;99.90
5899;DHT22;2975;50.956;6.962;2024-01-30T05:39:23;8.10;99.90
5899;DHT22;2975;50.956;6.962;2024-01-30T05:41:49;8.10;99.90
5899;DHT22;2975;50.956;6.962;2024-01-30T05:44:14;8.10;99.90
5899;DHT22;2975;50.956;6.962;2024-01-30T05:46:40;8.00;99.90
5899;DHT22;2975;50.956;6.962;2024-01-30T05:49:05;8.00;99.90
5899;DHT22;2975;50.956;6.962;2024-01-30T05:51:31;8.00;99.90
5899;DHT22;2975;50.956;6.962;2024-01-30T05:53:57;8.00;99.90
5899;DHT22;2975;50.956;6.962;2024-01-30T05:56:22;7.90;99.90
5899;DHT22;2975;50.956;6.962;2024-01-30T05:58:48;8.00;99.90
5899;DHT22;2975;50.956;6.962;2024-01-30T06:01:15;7.90;99.90
5899;DHT22;2975;50.956;6.962;2024-01-30T06:03:41;7.90;99.90
5899;DHT22;2975;50.956;6.962;2024-01-30T06:06:08;7.80;99.90
5899;DHT22;2975;50.956;6.962;2024-01-30T06:08:34;7.90;99.90
5899;DHT22;2975;50.956;6.962;2024-01-30T06:11:00;7.90;99.90
5899;DHT22;2975;50.956;6.962;2024-01-30T06:13:26;8.00;99.90
5899;DHT22;2975;50.956;6.962;2024-01-30T06:15:52;8.00;99.90
5899;DHT22;2975;50.956;6.962;2024-01-30T06:18:17;8.00;99.90
5899;DHT22;2975;50.956;6.962;2024-01-30T06:20:43;7.90;99.90
5899;DHT22;2975;50.956;6.962;2024-01-30T06:23:09;8.00;99.90
5899;DHT22;2975;50.956;6.962;2024-01-30T06:25:34;8.00;99.90
5899;DHT22;2975;50.956;6.962;2024-01-30T06:28:00;7.90;99.90
5899;DHT22;2975;50.956;6.962;2024-01-30T06:30:25;8.00;99.90
5899;DHT22;2975;50.956;6.962;2024-01-30T06:32:51;8.00;99.90
5899;DHT22;2975;50.956;6.962;2024-01-30T06:35:17;8.10;99.90
5899;DHT22;2975;50.956;6.962;2024-01-30T06:37:43;8.10;99.90
5899;DHT22;2975;50.956;6.962;2024-01-30T06:40:09;8.10;99.90
5899;DHT22;2975;50.956;6.962;2024-01-30T06:42:34;8.10;99.90
5899;DHT22;2975;50.956;6.962;2024-01-30T06:45:00;8.20;99.90
5899;DHT22;2975;50.956;6.962;2024-01-30T06:47:26;8.30;99.90
5899;DHT22;2975;50.956;6.962;2024-01-30T06:49:51;8.30;99.90
5899;DHT22;2975;50.956;6.962;2024-01-30T06:52:17;8.30;99.90
5899;DHT22;2975;50.956;6.962;2024-01-30T06:54:44;8.30;99.90
5899;DHT22;2975;50.956;6.962;2024-01-30T06:57:09;8.40;99.90
5899;DHT22;2975;50.956;6.962;2024-01-30T06:59:37;8.40;99.90
5899;DHT22;2975;50.956;6.962;2024-01-30T07:02:09;8.40;99.90
5899;DHT22;2975;50.956;6.962;2024-01-30T07:04:35;8.50;99.90
5899;DHT22;2975;50.956;6.962;2024-01-30T07:07:02;8.50;99.90
5899;DHT22;2975;50.956;6.962;2024-01-30T07:09:30;8.60;99.90
5899;DHT22;2975;50.956;6.962;2024-01-30T07:11:56;8.70;99.90
5899;DHT22;2975;50.956;6.962;2024-01-30T07:14:23;8.70;99.90
5899;DHT22;2975;50.956;6.962;2024-01-30T07:16:49;8.70;99.90
5899;DHT22;2975;50.956;6.962;2024-01-30T07:19:15;8.70;99.90
5899;DHT22;2975;50.956;6.962;2024-01-30T07:21:41;8.80;99.90
5899;DHT22;2975;50.956;6.962;2024-01-30T07:24:06;8.70;99.90
5899;DHT22;2975;50.956;6.962;2024-01-30T07:26:32;8.80;99.90
5899;DHT22;2975;50.956;6.962;2024-01-30T07:28:58;8.90;99.90
5899;DHT22;2975;50.956;6.962;2024-01-30T07:31:23;8.90;99.90
5899;DHT22;2975;50.956;6.962;2024-01-30T07:33:49;8.90;99.90
5899;DHT22;2975;50.956;6.962;2024-01-30T07:36:14;8.90;99.90
5899;DHT22;2975;50.956;6.962;2024-01-30T07:38:40;8.90;99.90
5899;DHT22;2975;50.956;6.962;2024-01-30T07:41:06;8.80;99.90
5899;DHT22;2975;50.956;6.962;2024-01-30T07:43:31;8.80;99.90
5899;DHT22;2975;50.956;6.962;2024-01-30T07:45:57;8.80;99.90
5899;DHT22;2975;50.956;6.962;2024-01-30T07:48:22;8.90;99.90
5899;DHT22;2975;50.956;6.962;2024-01-30T07:50:48;8.90;99.90
5899;DHT22;2975;50.956;6.962;2024-01-30T07:53:13;8.90;99.90
5899;DHT22;2975;50.956;6.962;2024-01-30T07:55:39;9.00;99.90
5899;DHT22;2975;50.956;6.962;2024-01-30T07:58:05;9.10;99.90
5899;DHT22;2975;50.956;6.962;2024-01-30T08:00:30;9.20;99.90
5899;DHT22;2975;50.956;6.962;2024-01-30T08:02:56;9.10;99.90
5899;DHT22;2975;50.956;6.962;2024-01-30T08:05:22;9.10;99.90
5899;DHT22;2975;50.956;6.962;2024-01-30T08:07:49;9.10;99.90
5899;DHT22;2975;50.956;6.962;2024-01-30T08:10:15;9.20;99.90
5899;DHT22;2975;50.956;6.962;2024-01-30T08:12:41;9.30;99.90
5899;DHT22;2975;50.956;6.962;2024-01-30T08:15:06;9.30;99.90
5899;DHT22;2975;50.956;6.962;2024-01-30T08:17:33;9.30;99.90
5899;DHT22;2975;50.956;6.962;2024-01-30T08:19:58;9.40;99.90
5899;DHT22;2975;50.956;6.962;2024-01-30T08:22:24;9.50;99.90
5899;DHT22;2975;50.956;6.962;2024-01-30T08:24:50;9.50;99.90
5899;DHT22;2975;50.956;6.962;2024-01-30T08:27:16;9.60;99.90
5899;DHT22;2975;50.956;6.962;2024-01-30T08:29:41;9.50;99.90
5899;DHT22;2975;50.956;6.962;2024-01-30T08:32:07;9.60;99.90
5899;DHT22;2975;50.956;6.962;2024-01-30T08:34:33;9.70;99.90
5899;DHT22;2975;50.956;6.962;2024-01-30T08:36:59;9.70;99.90
5899;DHT22;2975;50.956;6.962;2024-01-30T08:39:24;9.80;99.90
5899;DHT22;2975;50.956;6.962;2024-01-30T08:41:50;9.80;99.90
5899;DHT22;2975;50.956;6.962;2024-01-30T08:44:16;9.80;99.90
5899;DHT22;2975;50.956;6.962;2024-01-30T08:46:43;9.90;99.90
5899;DHT22;2975;50.956;6.962;2024-01-30T08:49:10;9.90;99.90
5899;DHT22;2975;50.956;6.962;2024-01-30T08:51:35;9.90;99.90
5899;DHT22;2975;50.956;6.962;2024-01-30T08:54:02;9.90;99.90
5899;DHT22;2975;50.956;6.962;2024-01-30T08:56:28;10.00;99.90
5899;DHT22;2975;50.956;6.962;2024-01-30T08:58:53;10.00;99.90
5899;DHT22;2975;50.956;6.962;2024-01-30T09:01:19;10.20;99.90
5899;DHT22;2975;50.956;6.962;2024-01-30T09:03:45;10.20;99.90
5899;DHT22;2975;50.956;6.962;2024-01-30T09:06:12;10.40;99.90
5899;DHT22;2975;50.956;6.962;2024-01-30T09:08:38;10.30;99.90
5899;DHT22;2975;50.956;6.962;2024-01-30T09:11:14;10.30;99.90
5899;DHT22;2975;50.956;6.962;2024-01-30T09:13:40;10.40;99.90
5899;DHT22;2975;50.956;6.962;2024-01-30T09:16:06;10.50;99.90
5899;DHT22;2975;50.956;6.962;2024-01-30T09:18:32;10.50;99.90
5899;DHT22;2975;50.956;6.962;2024-01-30T09:20:57;10.50;99.90
5899;DHT22;2975;50.956;6.962;2024-01-30T09:23:23;10.60;99.90
5899;DHT22;2975;50.956;6.962;2024-01-30T09:25:49;10.80;99.90
5899;DHT22;2975;50.956;6.962;2024-01-30T09:28:14;10.90;99.90
5899;DHT22;2975;50.956;6.962;2024-01-30T09:30:40;10.80;99.90
5899;DHT22;2975;50.956;6.962;2024-01-30T09:33:06;10.90;99.90
5899;DHT22;2975;50.956;6.962;2024-01-30T09:35:32;11.10;99.90
5899;DHT22;2975;50.956;6.962;2024-01-30T09:37:58;11.10;99.90
5899;DHT22;2975;50.956;6.962;2024-01-30T09:40:24;11.10;99.90
5899;DHT22;2975;50.956;6.962;2024-01-30T09:42:54;11.20;99.90
5899;DHT22;2975;50.956;6.962;2024-01-30T09:45:24;11.20;99.90
5899;DHT22;2975;50.956;6.962;2024-01-30T09:47:50;11.30;99.90
5899;DHT22;2975;50.956;6.962;2024-01-30T09:50:16;11.40;99.90
5899;DHT22;2975;50.956;6.962;2024-01-30T09:52:44;11.40;99.90
5899;DHT22;2975;50.956;6.962;2024-01-30T09:55:10;11.30;99.90
5899;DHT22;2975;50.956;6.962;2024-01-30T09:57:35;11.20;99.90
5899;DHT22;2975;50.956;6.962;2024-01-30T10:00:02;11.30;99.90
5899;DHT22;2975;50.956;6.962;2024-01-30T10:02:31;11.30;99.90
5899;DHT22;2975;50.956;6.962;2024-01-30T10:04:57;11.40;99.90
5899;DHT22;2975;50.956;6.962;2024-01-30T10:07:22;11.50;99.90
5899;DHT22;2975;50.956;6.962;2024-01-30T10:09:48;11.70;99.90
5899;DHT22;2975;50.956;6.962;2024-01-30T10:12:15;12.00;99.90
5899;DHT22;2975;50.956;6.962;2024-01-30T10:14:42;12.10;99.90
5899;DHT22;2975;50.956;6.962;2024-01-30T10:17:08;12.20;99.90
5899;DHT22;2975;50.956;6.962;2024-01-30T10:19:39;12.20;99.90
5899;DHT22;2975;50.956;6.962;2024-01-30T10:22:05;12.20;99.90
5899;DHT22;2975;50.956;6.962;2024-01-30T10:24:31;12.40;99.90
5899;DHT22;2975;50.956;6.962;2024-01-30T10:26:57;12.40;99.90
5899;DHT22;2975;50.956;6.962;2024-01-30T10:29:22;12.50;99.90
5899;DHT22;2975;50.956;6.962;2024-01-30T10:32:04;12.50;99.90
5899;DHT22;2975;50.956;6.962;2024-01-30T10:34:30;12.50;99.90
5899;DHT22;2975;50.956;6.962;2024-01-30T10:37:04;12.50;99.90
5899;DHT22;2975;50.956;6.962;2024-01-30T10:39:37;12.40;99.90
5899;DHT22;2975;50.956;6.962;2024-01-30T10:42:05;12.30;99.90
5899;DHT22;2975;50.956;6.962;2024-01-30T10:44:37;12.30;99.90
5899;DHT22;2975;50.956;6.962;2024-01-30T10:47:07;12.40;99.90
5899;DHT22;2975;50.956;6.962;2024-01-30T10:49:36;12.50;99.90
5899;DHT22;2975;50.956;6.962;2024-01-30T10:52:03;12.40;99.90
5899;DHT22;2975;50.956;6.962;2024-01-30T10:54:31;12.50;99.90
5899;DHT22;2975;50.956;6.962;2024-01-30T10:57:00;12.70;99.90
5899;DHT22;2975;50.956;6.962;2024-01-30T10:59:30;12.90;99.90
5899;DHT22;2975;50.956;6.962;2024-01-30T11:02:00;13.10;99.90
5899;DHT22;2975;50.956;6.962;2024-01-30T11:04:26;13.20;99.90
5899;DHT22;2975;50.956;6.962;2024-01-30T11:06:51;13.30;99.90
5899;DHT22;2975;50.956;6.962;2024-01-30T11:09:18;13.20;99.90
5899;DHT22;2975;50.956;6.962;2024-01-30T11:11:59;13.30;99.90
5899;DHT22;2975;50.956;6.962;2024-01-30T11:14:26;13.20;99.90
5899;DHT22;2975;50.956;6.962;2024-01-30T11:16:52;13.10;99.90
5899;DHT22;2975;50.956;6.962;2024-01-30T11:19:27;13.00;99.90
5899;DHT22;2975;50.956;6.962;2024-01-30T11:21:53;13.00;99.90
5899;DHT22;2975;50.956;6.962;2024-01-30T11:24:20;12.90;99.90
5899;DHT22;2975;50.956;6.962;2024-01-30T11:26:58;13.00;99.90
5899;DHT22;2975;50.956;6.962;2024-01-30T11:29:25;13.20;99.90
5899;DHT22;2975;50.956;6.962;2024-01-30T11:31:58;13.40;99.90
5899;DHT22;2975;50.956;6.962;2024-01-30T11:34:24;13.50;99.90
5899;DHT22;2975;50.956;6.962;2024-01-30T11:36:56;13.60;99.90
5899;DHT22;2975;50.956;6.962;2024-01-30T11:39:25;13.90;99.90
5899;DHT22;2975;50.956;6.962;2024-01-30T11:41:51;13.90;99.80
5899;DHT22;2975;50.956;6.962;2024-01-30T11:44:17;13.90;99.90
5899;DHT22;2975;50.956;6.962;2024-01-30T11:46:43;13.90;99.90
5899;DHT22;2975;50.956;6.962;2024-01-30T11:49:09;13.90;99.90
5899;DHT22;2975;50.956;6.962;2024-01-30T11:51:35;13.90;99.90
5899;DHT22;2975;50.956;6.962;2024-01-30T11:54:00;14.00;99.90
5899;DHT22;2975;50.956;6.962;2024-01-30T11:56:26;14.10;99.60
5899;DHT22;2975;50.956;6.962;2024-01-30T11:58:52;14.10;99.30
5899;DHT22;2975;50.956;6.962;2024-01-30T12:01:18;14.00;99.80
5899;DHT22;2975;50.956;6.962;2024-01-30T12:03:49;14.00;99.90
5899;DHT22;2975;50.956;6.962;2024-01-30T12:06:15;14.00;99.90
5899;DHT22;2975;50.956;6.962;2024-01-30T12:08:41;14.00;99.90
5899;DHT22;2975;50.956;6.962;2024-01-30T12:11:07;14.00;99.90
5899;DHT22;2975;50.956;6.962;2024-01-30T12:13:32;14.00;99.90
5899;DHT22;2975;50.956;6.962;2024-01-30T12:15:59;14.20;99.70
5899;DHT22;2975;50.956;6.962;2024-01-30T12:18:24;14.20;99.70
5899;DHT22;2975;50.956;6.962;2024-01-30T12:20:59;14.10;99.90
5899;DHT22;2975;50.956;6.962;2024-01-30T12:23:26;14.20;99.40
5899;DHT22;2975;50.956;6.962;2024-01-30T12:25:52;14.40;98.90
5899;DHT22;2975;50.956;6.962;2024-01-30T12:28:19;14.30;99.00
5899;DHT22;2975;50.956;6.962;2024-01-30T12:30:44;14.30;99.40
5899;DHT22;2975;50.956;6.962;2024-01-30T12:33:16;14.20;99.90
5899;DHT22;2975;50.956;6.962;2024-01-30T12:35:46;14.30;99.50
5899;DHT22;2975;50.956;6.962;2024-01-30T12:38:12;14.40;99.10
5899;DHT22;2975;50.956;6.962;2024-01-30T12:40:37;14.50;99.10
5899;DHT22;2975;50.956;6.962;2024-01-30T12:43:03;14.60;98.60
5899;DHT22;2975;50.956;6.962;2024-01-30T12:45:30;14.40;99.20
5899;DHT22;2975;50.956;6.962;2024-01-30T12:47:55;14.30;99.60
5899;DHT22;2975;50.956;6.962;2024-01-30T12:50:21;14.20;99.90
5899;DHT22;2975;50.956;6.962;2024-01-30T12:52:47;14.20;99.90
5899;DHT22;2975;50.956;6.962;2024-01-30T12:55:13;14.40;99.50
5899;DHT22;2975;50.956;6.962;2024-01-30T12:57:39;14.50;99.40
5899;DHT22;2975;50.956;6.962;2024-01-30T13:00:05;14.50;99.60
5899;DHT22;2975;50.956;6.962;2024-01-30T13:02:34;14.50;99.60
5899;DHT22;2975;50.956;6.962;2024-01-30T13:05:03;14.50;99.30
5899;DHT22;2975;50.956;6.962;2024-01-30T13:07:29;14.50;99.40
5899;DHT22;2975;50.956;6.962;2024-01-30T13:09:54;14.40;99.70
5899;DHT22;2975;50.956;6.962;2024-01-30T13:12:20;14.40;99.50
5899;DHT22;2975;50.956;6.962;2024-01-30T13:14:45;14.30;99.60
5899;DHT22;2975;50.956;6.962;2024-01-30T13:17:11;14.20;99.80
5899;DHT22;2975;50.956;6.962;2024-01-30T13:19:37;14.20;99.90
5899;DHT22;2975;50.956;6.962;2024-01-30T13:22:02;14.20;99.70
5899;DHT22;2975;50.956;6.962;2024-01-30T13:24:28;14.20;99.70
5899;DHT22;2975;50.956;6.962;2024-01-30T13:26:54;14.20;99.90
5899;DHT22;2975;50.956;6.962;2024-01-30T13:29:20;14.20;99.90
5899;DHT22;2975;50.956;6.962;2024-01-30T13:31:45;14.20;99.90
5899;DHT22;2975;50.956;6.962;2024-01-30T13:34:12;14.10;99.90
5899;DHT22;2975;50.956;6.962;2024-01-30T13:36:39;14.00;99.90
5899;DHT22;2975;50.956;6.962;2024-01-30T13:39:05;13.80;99.90
5899;DHT22;2975;50.956;6.962;2024-01-30T13:41:37;13.70;99.90
5899;DHT22;2975;50.956;6.962;2024-01-30T13:44:03;13.70;99.90
5899;DHT22;2975;50.956;6.962;2024-01-30T13:46:29;13.70;99.90
5899;DHT22;2975;50.956;6.962;2024-01-30T13:48:55;13.70;99.90
5899;DHT22;2975;50.956;6.962;2024-01-30T13:51:20;13.60;99.90
5899;DHT22;2975;50.956;6.962;2024-01-30T13:53:46;13.60;99.90
5899;DHT22;2975;50.956;6.962;2024-01-30T13:56:12;13.50;99.90
5899;DHT22;2975;50.956;6.962;2024-01-30T13:58:37;13.50;99.90
5899;DHT22;2975;50.956;6.962;2024-01-30T14:01:04;13.50;99.90
5899;DHT22;2975;50.956;6.962;2024-01-30T14:03:30;13.50;99.90
5899;DHT22;2975;50.956;6.962;2024-01-30T14:05:56;13.40;99.90
5899;DHT22;2975;50.956;6.962;2024-01-30T14:08:21;13.40;99.90
5899;DHT22;2975;50.956;6.962;2024-01-30T14:10:49;13.40;99.90
5899;DHT22;2975;50.956;6.962;2024-01-30T14:13:14;13.30;99.90
5899;DHT22;2975;50.956;6.962;2024-01-30T14:15:40;13.30;99.90
5899;DHT22;2975;50.956;6.962;2024-01-30T14:18:06;13.30;99.90
5899;DHT22;2975;50.956;6.962;2024-01-30T14:20:33;13.30;99.90
5899;DHT22;2975;50.956;6.962;2024-01-30T14:22:59;13.30;99.90
5899;DHT22;2975;50.956;6.962;2024-01-30T14:25:25;13.20;99.90
5899;DHT22;2975;50.956;6.962;2024-01-30T14:27:51;13.30;99.90
5899;DHT22;2975;50.956;6.962;2024-01-30T14:30:17;13.20;99.90
5899;DHT22;2975;50.956;6.962;2024-01-30T14:32:43;13.20;99.90
5899;DHT22;2975;50.956;6.962;2024-01-30T14:35:10;13.20;99.90
5899;DHT22;2975;50.956;6.962;2024-01-30T14:37:37;13.30;99.90
5899;DHT22;2975;50.956;6.962;2024-01-30T14:40:03;13.30;99.90
5899;DHT22;2975;50.956;6.962;2024-01-30T14:42:29;13.30;99.90
5899;DHT22;2975;50.956;6.962;2024-01-30T14:44:57;13.30;99.90
5899;DHT22;2975;50.956;6.962;2024-01-30T14:47:23;13.30;99.90
5899;DHT22;2975;50.956;6.962;2024-01-30T14:49:48;13.30;99.90
5899;DHT22;2975;50.956;6.962;2024-01-30T14:52:14;13.30;99.90
5899;DHT22;2975;50.956;6.962;2024-01-30T14:54:40;13.30;99.90
5899;DHT22;2975;50.956;6.962;2024-01-30T14:57:06;13.30;99.90
5899;DHT22;2975;50.956;6.962;2024-01-30T14:59:31;13.30;99.90
5899;DHT22;2975;50.956;6.962;2024-01-30T15:01:57;13.30;99.90
5899;DHT22;2975;50.956;6.962;2024-01-30T15:04:23;13.20;99.90
5899;DHT22;2975;50.956;6.962;2024-01-30T15:06:49;13.20;99.90
5899;DHT22;2975;50.956;6.962;2024-01-30T15:09:15;13.10;99.90
5899;DHT22;2975;50.956;6.962;2024-01-30T15:11:44;13.10;99.90
5899;DHT22;2975;50.956;6.962;2024-01-30T15:14:10;13.10;99.90
5899;DHT22;2975;50.956;6.962;2024-01-30T15:16:36;13.20;99.90
5899;DHT22;2975;50.956;6.962;2024-01-30T15:19:02;13.10;99.90
5899;DHT22;2975;50.956;6.962;2024-01-30T15:21:32;13.10;99.90
5899;DHT22;2975;50.956;6.962;2024-01-30T15:23:58;13.10;99.90
5899;DHT22;2975;50.956;6.962;2024-01-30T15:26:24;13.00;99.90
5899;DHT22;2975;50.956;6.962;2024-01-30T15:28:50;13.00;99.90
5899;DHT22;2975;50.956;6.962;2024-01-30T15:31:16;13.00;99.90
5899;DHT22;2975;50.956;6.962;2024-01-30T15:33:41;12.90;99.90
5899;DHT22;2975;50.956;6.962;2024-01-30T15:36:08;12.90;99.90
5899;DHT22;2975;50.956;6.962;2024-01-30T15:38:34;12.90;99.90
5899;DHT22;2975;50.956;6.962;2024-01-30T15:41:00;12.80;99.90
5899;DHT22;2975;50.956;6.962;2024-01-30T15:43:26;12.80;99.90
5899;DHT22;2975;50.956;6.962;2024-01-30T15:45:52;12.70;99.90
5899;DHT22;2975;50.956;6.962;2024-01-30T15:48:21;12.70;99.90
5899;DHT22;2975;50.956;6.962;2024-01-30T15:50:47;12.70;99.90
5899;DHT22;2975;50.956;6.962;2024-01-30T15:53:12;12.70;99.90
5899;DHT22;2975;50.956;6.962;2024-01-30T15:55:38;12.70;99.90
5899;DHT22;2975;50.956;6.962;2024-01-30T15:58:04;12.70;99.90
5899;DHT22;2975;50.956;6.962;2024-01-30T16:00:31;12.60;99.90
5899;DHT22;2975;50.956;6.962;2024-01-30T16:02:56;12.60;99.90